createdAt,value
2022-08-25T00:03:14.500Z,6.60
2022-08-25T00:08:18.467Z,6.20
2022-08-25T00:13:21.190Z,6.50
2022-08-25T00:18:28.570Z,5.80
2022-08-25T00:23:31.930Z,5.80
2022-08-25T00:28:36.586Z,5.20
2022-08-25T00:33:39.441Z,5.80
2022-08-25T00:38:44.044Z,5.30
2022-08-25T00:43:48.945Z,5.40
2022-08-25T00:48:58.261Z,5.30
2022-08-25T00:54:02.798Z,4.50
2022-08-25T00:59:05.933Z,4.80
2022-08-25T01:04:09.053Z,5.00
2022-08-25T01:09:14.150Z,4.90
2022-08-25T01:14:19.965Z,4.90
2022-08-25T01:19:22.721Z,5.20
2022-08-25T01:24:44.235Z,4.90
2022-08-25T01:29:46.967Z,5.10
2022-08-25T01:34:49.881Z,5.00
2022-08-25T01:39:55.102Z,5.20
2022-08-25T01:44:57.859Z,5.00
2022-08-25T01:50:00.643Z,4.90
2022-08-25T01:55:05.279Z,4.10
2022-08-25T02:00:12.830Z,4.60
2022-08-25T02:05:18.487Z,4.40
2022-08-25T02:10:25.640Z,4.70
2022-08-25T02:15:28.525Z,4.20
2022-08-25T02:20:31.307Z,4.50
2022-08-25T02:25:34.409Z,4.60
2022-08-25T02:30:39.053Z,4.80
2022-08-25T02:35:42.381Z,4.90
2022-08-25T02:40:45.107Z,4.70
2022-08-25T02:45:48.157Z,4.80
2022-08-25T02:50:52.940Z,5.00
2022-08-25T02:55:55.985Z,4.90
2022-08-25T03:00:58.740Z,5.10
2022-08-25T03:06:02.593Z,5.00
2022-08-25T03:11:06.513Z,5.00
2022-08-25T03:16:11.453Z,5.10
2022-08-25T03:21:16.477Z,4.80
2022-08-25T03:26:49.331Z,5.50
2022-08-25T03:31:54.937Z,5.30
2022-08-25T03:36:58.934Z,5.10
2022-08-25T03:42:03.166Z,5.30
2022-08-25T03:47:07.252Z,5.00
2022-08-25T03:52:10.570Z,5.30
2022-08-25T03:57:13.604Z,6.10
2022-08-25T04:02:16.337Z,5.70
2022-08-25T04:07:20.038Z,5.40
2022-08-25T04:12:23.926Z,5.30
2022-08-25T04:17:26.924Z,5.50
2022-08-25T04:22:31.170Z,5.40
2022-08-25T04:27:37.614Z,5.60
2022-08-25T04:32:40.408Z,5.10
2022-08-25T04:37:43.309Z,5.30
2022-08-25T04:42:48.057Z,5.10
2022-08-25T04:47:54.845Z,5.20
2022-08-25T04:52:58.706Z,5.20
2022-08-25T04:58:01.568Z,4.00
2022-08-25T05:03:05.976Z,5.20
2022-08-25T05:08:08.927Z,4.90
2022-08-25T05:13:11.829Z,4.90
2022-08-25T05:18:14.737Z,5.80
2022-08-25T05:23:17.832Z,8.70
2022-08-25T05:28:21.171Z,7.70
2022-08-25T05:33:24.017Z,6.60
2022-08-25T05:38:27.450Z,5.60
2022-08-25T05:43:31.105Z,6.30
2022-08-25T05:48:34.416Z,5.90
2022-08-25T05:53:39.245Z,5.90
2022-08-25T05:58:43.575Z,8.10
2022-08-25T06:03:47.831Z,8.90
2022-08-25T06:08:50.689Z,6.40
2022-08-25T06:13:54.271Z,6.80
2022-08-25T06:18:57.043Z,7.50
2022-08-25T06:23:59.986Z,7.60
2022-08-25T06:29:03.957Z,6.50
2022-08-25T06:34:06.805Z,5.40
2022-08-25T06:39:10.586Z,5.50
2022-08-25T06:44:13.490Z,4.90
2022-08-25T06:49:16.234Z,5.50
2022-08-25T06:54:18.943Z,5.20
2022-08-25T06:59:22.381Z,5.60
2022-08-25T07:04:25.793Z,5.10
2022-08-25T07:09:28.993Z,6.20
2022-08-25T07:14:31.751Z,5.50
2022-08-25T07:19:34.834Z,5.10
2022-08-25T07:24:37.624Z,4.60
2022-08-25T07:29:42.214Z,5.00
2022-08-25T07:35:04.354Z,4.90
2022-08-25T07:40:08.347Z,4.80
2022-08-25T07:45:12.652Z,4.70
2022-08-25T07:50:15.411Z,4.40
2022-08-25T07:55:18.460Z,4.70
2022-08-25T08:00:32.173Z,4.40
2022-08-25T08:05:37.454Z,4.80
2022-08-25T08:11:04.030Z,4.60
2022-08-25T08:16:09.948Z,4.60
2022-08-25T08:21:19.230Z,5.60
2022-08-25T08:26:36.526Z,4.80
2022-08-25T08:31:48.648Z,4.70
2022-08-25T08:36:52.090Z,4.40
2022-08-25T08:42:19.246Z,4.50
2022-08-25T08:47:35.847Z,4.60
2022-08-25T08:52:48.779Z,4.30
2022-08-25T08:57:55.795Z,4.30
2022-08-25T09:03:07.700Z,4.80
2022-08-25T09:08:13.775Z,4.10
2022-08-25T09:14:00.419Z,4.50
2022-08-25T09:19:32.149Z,5.10
2022-08-25T09:24:52.669Z,5.10
2022-08-25T09:30:10.199Z,5.20
2022-08-25T09:35:26.344Z,4.50
2022-08-25T09:40:35.451Z,4.40
2022-08-25T09:45:46.425Z,5.10
2022-08-25T09:50:51.438Z,5.20
2022-08-25T09:56:04.705Z,4.80
2022-08-25T10:01:25.790Z,4.20
2022-08-25T10:06:43.532Z,4.40
2022-08-25T10:11:48.509Z,5.20
2022-08-25T10:16:53.469Z,4.30
2022-08-25T10:22:12.827Z,4.90
2022-08-25T10:27:39.504Z,4.70
2022-08-25T10:32:52.099Z,5.20
2022-08-25T10:37:59.070Z,5.10
2022-08-25T10:43:43.689Z,4.40
2022-08-25T10:49:10.631Z,4.30
2022-08-25T10:54:52.027Z,4.70
2022-08-25T11:00:14.118Z,4.30
2022-08-25T11:05:31.186Z,4.50
2022-08-25T11:11:02.662Z,4.30
2022-08-25T11:16:19.208Z,4.30
2022-08-25T11:21:48.846Z,4.40
2022-08-25T11:26:56.281Z,4.80
2022-08-25T11:32:02.090Z,4.00
2022-08-25T11:37:34.900Z,4.30
2022-08-25T11:43:20.270Z,5.50
2022-08-25T11:48:30.409Z,4.60
2022-08-25T11:53:37.965Z,4.90
2022-08-25T11:58:53.931Z,5.20
2022-08-25T12:04:34.057Z,4.50
2022-08-25T12:10:10.997Z,4.80
2022-08-25T12:16:00.564Z,5.10
2022-08-25T12:21:06.448Z,5.00
2022-08-25T12:26:30.326Z,4.60
2022-08-25T12:32:07.189Z,4.80
2022-08-25T12:37:15.780Z,5.40
2022-08-25T12:42:38.678Z,5.00
2022-08-25T12:47:47.613Z,4.60
2022-08-25T12:52:52.786Z,5.70
2022-08-25T12:57:59.047Z,5.10
2022-08-25T13:03:01.916Z,5.00
2022-08-25T13:08:49.600Z,5.00
2022-08-25T13:14:15.494Z,5.10
2022-08-25T13:19:20.291Z,4.60
2022-08-25T13:24:32.085Z,5.00
2022-08-25T13:29:58.357Z,4.70
2022-08-25T13:35:08.909Z,5.30
2022-08-25T13:40:27.809Z,5.30
2022-08-25T13:45:41.234Z,5.40
2022-08-25T13:50:51.629Z,5.30
2022-08-25T13:55:58.924Z,5.50
2022-08-25T14:01:23.206Z,5.40
2022-08-25T14:06:29.670Z,5.40
2022-08-25T14:11:48.703Z,5.10
2022-08-25T14:17:05.008Z,5.20
2022-08-25T14:22:19.750Z,5.60
2022-08-25T14:27:22.729Z,5.40
2022-08-25T14:32:25.488Z,5.40
2022-08-25T14:37:29.296Z,5.40
2022-08-25T14:42:35.253Z,5.30
2022-08-25T14:47:38.325Z,5.10
2022-08-25T14:52:43.548Z,4.90
2022-08-25T14:57:47.115Z,5.50
2022-08-25T15:02:51.717Z,5.00
2022-08-25T15:08:14.892Z,5.70
2022-08-25T15:13:17.852Z,4.90
2022-08-25T15:18:22.803Z,5.50
2022-08-25T15:23:26.445Z,5.40
2022-08-25T15:28:29.449Z,5.60
2022-08-25T15:33:33.712Z,4.60
2022-08-25T15:38:37.568Z,5.20
2022-08-25T15:43:40.813Z,5.10
2022-08-25T15:48:43.689Z,5.20
2022-08-25T15:53:47.128Z,5.20
2022-08-25T15:58:50.730Z,5.00
2022-08-25T16:03:54.774Z,5.70
2022-08-25T16:08:58.977Z,5.60
2022-08-25T16:14:02.525Z,4.90
2022-08-25T16:19:06.889Z,6.20
2022-08-25T16:24:09.744Z,4.80
2022-08-25T16:29:14.619Z,4.80
2022-08-25T16:34:17.352Z,5.40
2022-08-25T16:39:23.963Z,5.10
2022-08-25T16:44:27.244Z,6.30
2022-08-25T16:49:31.247Z,5.60
2022-08-25T16:54:52.392Z,5.70
2022-08-25T16:59:55.928Z,5.70
2022-08-25T17:04:59.387Z,6.10
2022-08-25T17:10:05.349Z,5.70
2022-08-25T17:15:09.421Z,6.00
2022-08-25T17:20:12.108Z,6.90
2022-08-25T17:25:14.966Z,6.80
2022-08-25T17:30:17.795Z,7.80
2022-08-25T17:35:20.851Z,7.60
2022-08-25T17:40:24.938Z,6.70
2022-08-25T17:45:29.786Z,6.90
2022-08-25T17:50:36.304Z,6.70
2022-08-25T17:55:43.142Z,6.40
2022-08-25T18:00:47.099Z,5.40
2022-08-25T18:05:50.407Z,6.10
2022-08-25T18:10:53.215Z,6.60
2022-08-25T18:15:55.986Z,5.80
2022-08-25T18:20:58.790Z,6.00
2022-08-25T18:26:02.645Z,6.80
2022-08-25T18:31:05.847Z,6.40
2022-08-25T18:36:11.211Z,6.80
2022-08-25T18:41:14.025Z,6.20
2022-08-25T18:46:17.142Z,5.90
2022-08-25T18:51:26.251Z,5.90
2022-08-25T18:56:30.250Z,6.20
2022-08-25T19:01:33.078Z,6.10
2022-08-25T19:06:37.722Z,6.20
2022-08-25T19:11:40.592Z,5.80
2022-08-25T19:16:44.390Z,5.80
2022-08-25T19:21:48.241Z,6.50
2022-08-25T19:26:54.567Z,6.40
2022-08-25T19:32:01.170Z,6.50
2022-08-25T19:37:06.076Z,7.00
2022-08-25T19:42:35.098Z,6.70
2022-08-25T19:47:33.090Z,6.90
2022-08-25T19:52:37.166Z,6.60
2022-08-25T19:57:42.630Z,7.10
2022-08-25T20:02:47.291Z,6.90
2022-08-25T20:07:54.068Z,6.30
2022-08-25T20:12:56.860Z,7.20
2022-08-25T20:18:00.990Z,7.60
2022-08-25T20:23:24.316Z,7.10
2022-08-25T20:28:27.059Z,6.80
2022-08-25T20:33:30.635Z,7.10
2022-08-25T20:38:33.665Z,6.80
2022-08-25T20:43:36.363Z,6.90
2022-08-25T20:48:39.290Z,6.50
2022-08-25T20:53:43.944Z,7.00
2022-08-25T20:58:48.683Z,7.40
2022-08-25T21:03:51.419Z,7.00
2022-08-25T21:08:54.629Z,7.20
2022-08-25T21:13:58.884Z,7.20
2022-08-25T21:19:02.463Z,8.90
2022-08-25T21:24:09.701Z,8.40
2022-08-25T21:29:15.245Z,7.80
2022-08-25T21:34:20.088Z,7.80
2022-08-25T21:39:26.451Z,7.70
2022-08-25T21:44:30.257Z,7.10
2022-08-25T21:49:37.324Z,8.90
2022-08-25T21:54:40.812Z,8.10
2022-08-25T21:59:43.955Z,8.30
2022-08-25T22:04:48.789Z,8.70
2022-08-25T22:09:52.057Z,8.50
2022-08-25T22:14:55.612Z,8.20
2022-08-25T22:19:58.993Z,8.80
2022-08-25T22:25:01.906Z,9.60
2022-08-25T22:30:05.706Z,8.50
2022-08-25T22:35:09.515Z,8.60
2022-08-25T22:40:13.254Z,8.60
2022-08-25T22:45:17.537Z,8.60
2022-08-25T22:50:20.456Z,10.00
2022-08-25T22:55:23.804Z,9.40
2022-08-25T23:00:27.416Z,8.30
2022-08-25T23:05:30.273Z,8.50
2022-08-25T23:10:34.592Z,9.00
2022-08-25T23:15:38.108Z,9.30
2022-08-25T23:20:59.801Z,9.80
2022-08-25T23:26:05.340Z,9.80
2022-08-25T23:31:09.549Z,9.60
2022-08-25T23:36:15.955Z,8.40
2022-08-25T23:41:23.201Z,8.90
2022-08-25T23:46:29.129Z,9.30
2022-08-25T23:51:34.229Z,8.80
2022-08-25T23:56:44.700Z,8.50
